Time;durP1;ratioP1;P1;durP2;ratioP2;P2;SDS_P1;SDS_P2;PMS_P1;PMS_P2;Temp;Humidity;BMP_temperature;BMP_pressure;BME280_temperature;BME280_humidity;BME280_pressure;Samples;Min_cycle;Max_cycle;Signal;HPM_P1;HPM_P2
2024/02/25 00:02:11;;;;;;;1.80;1.10;;;;;;;;;;5024549;28;20506;-67
2024/02/25 00:04:36;;;;;;;1.73;1.20;;;;;;;;;;5025792;28;20041;-66
2024/02/25 00:07:01;;;;;;;1.92;1.20;;;;;;;;;;5025477;28;20037;-66
2024/02/25 00:09:26;;;;;;;1.80;1.02;;;;;;;;;;5024437;28;20189;-67
2024/02/25 00:11:52;;;;;;;1.63;1.10;;;;;;;;;;5027001;28;20037;-67
2024/02/25 00:14:17;;;;;;;1.58;1.10;;;;;;;;;;5024656;28;20518;-66
2024/02/25 00:16:42;;;;;;;2.10;1.30;;;;;;;;;;5021933;28;20052;-66
2024/02/25 00:19:08;;;;;;;2.83;1.40;;;;;;;;;;5023265;28;20136;-67
2024/02/25 00:21:33;;;;;;;2.00;1.20;;;;;;;;;;5021826;28;20048;-66
2024/02/25 00:23:58;;;;;;;2.50;1.20;;;;;;;;;;5024712;28;20466;-67
2024/02/25 00:26:24;;;;;;;1.50;1.17;;;;;;;;;;5006029;28;20026;-67
2024/02/25 00:28:49;;;;;;;1.88;1.10;;;;;;;;;;5005889;28;20025;-66
2024/02/25 00:31:15;;;;;;;1.73;1.02;;;;;;;;;;5025491;28;20067;-66
2024/02/25 00:33:40;;;;;;;1.25;1.10;;;;;;;;;;5025001;28;20030;-66
2024/02/25 00:36:06;;;;;;;1.50;1.02;;;;;;;;;;5023642;28;20548;-66
2024/02/25 00:38:32;;;;;;;1.75;1.17;;;;;;;;;;5005681;28;20025;-67
2024/02/25 00:40:57;;;;;;;1.65;1.10;;;;;;;;;;5025944;28;20122;-67
2024/02/25 00:43:22;;;;;;;1.80;1.30;;;;;;;;;;5009724;28;20068;-66
2024/02/25 00:45:48;;;;;;;1.52;0.90;;;;;;;;;;5008764;28;20781;-67
2024/02/25 00:48:13;;;;;;;1.85;1.30;;;;;;;;;;5022606;28;20025;-67
2024/02/25 00:50:39;;;;;;;2.60;1.30;;;;;;;;;;5013409;28;20039;-66
2024/02/25 00:53:04;;;;;;;1.75;1.15;;;;;;;;;;5022069;28;20022;-66
2024/02/25 00:55:29;;;;;;;1.63;1.10;;;;;;;;;;5011556;28;20029;-66
2024/02/25 00:57:54;;;;;;;2.13;1.33;;;;;;;;;;5022914;28;20033;-68
2024/02/25 01:03:22;;;;;;;1.58;1.20;;;;;;;;;;4990820;28;20288;-69
2024/02/25 01:05:48;;;;;;;2.10;1.50;;;;;;;;;;4996838;28;20786;-68
2024/02/25 01:08:13;;;;;;;2.03;1.20;;;;;;;;;;5035097;28;20053;-72
2024/02/25 01:10:40;;;;;;;1.60;1.20;;;;;;;;;;5025781;28;20132;-72
2024/02/25 01:13:05;;;;;;;1.55;1.20;;;;;;;;;;5020741;28;20036;-72
2024/02/25 01:15:31;;;;;;;1.48;1.02;;;;;;;;;;5023274;28;20045;-73
2024/02/25 01:17:56;;;;;;;1.50;1.10;;;;;;;;;;5026436;28;20041;-72
2024/02/25 01:20:22;;;;;;;2.53;1.25;;;;;;;;;;5025271;28;20041;-72
2024/02/25 01:22:48;;;;;;;1.88;1.15;;;;;;;;;;5020229;28;22080;-68
2024/02/25 01:25:13;;;;;;;1.30;0.90;;;;;;;;;;5026821;28;20771;-68
2024/02/25 01:27:39;;;;;;;1.63;1.00;;;;;;;;;;5026929;28;20042;-67
2024/02/25 01:30:04;;;;;;;2.28;1.02;;;;;;;;;;5020639;28;20050;-67
2024/02/25 01:32:30;;;;;;;2.08;1.40;;;;;;;;;;5025029;28;20493;-69
2024/02/25 01:34:55;;;;;;;2.70;1.20;;;;;;;;;;5028008;28;20405;-68
2024/02/25 01:37:21;;;;;;;1.85;1.20;;;;;;;;;;5027572;28;20063;-68
2024/02/25 01:39:46;;;;;;;2.03;1.10;;;;;;;;;;5020140;28;20037;-68
2024/02/25 01:42:12;;;;;;;1.95;1.30;;;;;;;;;;5020736;28;20804;-68
2024/02/25 01:45:00;;;;;;;1.40;1.00;;;;;;;;;;5022460;28;20057;-69
2024/02/25 01:47:26;;;;;;;1.73;1.15;;;;;;;;;;5028068;28;20041;-68
2024/02/25 01:49:51;;;;;;;1.58;0.90;;;;;;;;;;5028063;28;20030;-68
2024/02/25 01:52:16;;;;;;;1.92;1.10;;;;;;;;;;5028763;28;20588;-68
2024/02/25 01:54:42;;;;;;;1.30;0.90;;;;;;;;;;5008555;28;20514;-68
2024/02/25 01:57:08;;;;;;;1.60;1.10;;;;;;;;;;5009535;28;20727;-68
2024/02/25 01:59:33;;;;;;;1.77;1.20;;;;;;;;;;5025958;28;20045;-68
2024/02/25 02:01:58;;;;;;;1.50;0.90;;;;;;;;;;5028179;28;20072;-68
2024/02/25 02:04:24;;;;;;;2.55;1.13;;;;;;;;;;5028417;28;20038;-68
2024/02/25 02:06:49;;;;;;;1.73;1.00;;;;;;;;;;5025758;28;20139;-69
2024/02/25 02:09:15;;;;;;;1.58;1.05;;;;;;;;;;5028854;28;20091;-69
2024/02/25 02:11:42;;;;;;;1.65;1.20;;;;;;;;;;5028405;28;20151;-69
2024/02/25 02:14:07;;;;;;;2.88;1.10;;;;;;;;;;5026455;28;20079;-69
2024/02/25 02:16:32;;;;;;;1.77;1.30;;;;;;;;;;5027209;28;20052;-69
2024/02/25 02:18:58;;;;;;;2.08;1.17;;;;;;;;;;5027809;28;20037;-69
2024/02/25 02:21:26;;;;;;;2.15;1.35;;;;;;;;;;5029779;28;20037;-69
2024/02/25 02:23:54;;;;;;;1.58;1.15;;;;;;;;;;5027324;28;20041;-69
2024/02/25 02:26:28;;;;;;;1.92;1.23;;;;;;;;;;5046867;22;20060;-69
2024/02/25 02:28:55;;;;;;;1.90;1.15;;;;;;;;;;4997365;28;20703;-70
2024/02/25 02:31:21;;;;;;;1.60;1.20;;;;;;;;;;5008139;28;20507;-69
2024/02/25 02:33:46;;;;;;;1.70;1.10;;;;;;;;;;5008676;28;20037;-69
2024/02/25 02:36:12;;;;;;;1.90;1.35;;;;;;;;;;5004724;28;20058;-69
2024/02/25 02:38:37;;;;;;;1.65;1.10;;;;;;;;;;5007953;28;20065;-69
2024/02/25 02:41:06;;;;;;;1.60;1.13;;;;;;;;;;5007183;28;20044;-70
2024/02/25 02:43:31;;;;;;;1.65;1.02;;;;;;;;;;5006991;28;20125;-69
2024/02/25 02:45:57;;;;;;;1.90;1.20;;;;;;;;;;5007122;28;20107;-69
2024/02/25 02:48:22;;;;;;;1.85;1.10;;;;;;;;;;5006027;28;20034;-69
2024/02/25 02:50:47;;;;;;;1.83;1.10;;;;;;;;;;5008566;28;20111;-70
2024/02/25 02:53:13;;;;;;;2.45;1.25;;;;;;;;;;5007682;28;20384;-69
2024/02/25 02:55:40;;;;;;;2.08;1.10;;;;;;;;;;5011831;28;20152;-69
2024/02/25 02:58:06;;;;;;;1.42;1.05;;;;;;;;;;5007420;28;20037;-69
2024/02/25 03:00:31;;;;;;;2.42;1.02;;;;;;;;;;5001957;28;20026;-69
2024/02/25 03:02:56;;;;;;;1.60;1.20;;;;;;;;;;5009660;28;20048;-69
2024/02/25 03:05:21;;;;;;;1.88;0.93;;;;;;;;;;5006901;28;20061;-69
2024/02/25 03:07:49;;;;;;;2.55;0.90;;;;;;;;;;5008452;28;20057;-69
2024/02/25 03:10:17;;;;;;;1.70;1.00;;;;;;;;;;5007450;28;20157;-69
2024/02/25 03:12:50;;;;;;;2.05;0.98;;;;;;;;;;5005252;28;20045;-69
2024/02/25 03:15:16;;;;;;;1.67;1.00;;;;;;;;;;5006949;28;20026;-69
2024/02/25 03:17:41;;;;;;;1.88;1.13;;;;;;;;;;5007148;28;20045;-69
2024/02/25 03:20:07;;;;;;;1.48;1.10;;;;;;;;;;5008788;28;20041;-69
2024/02/25 03:22:33;;;;;;;1.30;1.00;;;;;;;;;;5006214;28;20062;-69
2024/02/25 03:24:58;;;;;;;1.58;1.02;;;;;;;;;;5008642;28;20073;-69
2024/02/25 03:27:23;;;;;;;1.80;1.20;;;;;;;;;;5007981;28;20127;-69
2024/02/25 03:29:49;;;;;;;1.27;0.90;;;;;;;;;;5007615;28;20060;-69
2024/02/25 03:32:14;;;;;;;1.25;0.93;;;;;;;;;;5008953;28;20049;-69
2024/02/25 03:34:40;;;;;;;1.27;1.00;;;;;;;;;;5008810;28;20038;-69
2024/02/25 03:37:05;;;;;;;1.52;1.10;;;;;;;;;;5005316;28;20041;-69
2024/02/25 03:39:31;;;;;;;1.65;0.90;;;;;;;;;;5006402;28;20076;-69
2024/02/25 03:41:57;;;;;;;2.10;1.08;;;;;;;;;;5007632;28;20041;-70
2024/02/25 03:44:22;;;;;;;1.50;1.00;;;;;;;;;;5005459;28;20038;-69
2024/02/25 03:46:48;;;;;;;1.40;0.98;;;;;;;;;;5006089;28;20046;-69
2024/02/25 03:49:13;;;;;;;1.50;1.10;;;;;;;;;;5007361;28;20037;-69
2024/02/25 03:51:39;;;;;;;1.60;1.00;;;;;;;;;;5007725;28;20056;-69
2024/02/25 03:54:05;;;;;;;1.50;1.17;;;;;;;;;;5010899;28;20038;-69
2024/02/25 03:56:30;;;;;;;1.90;1.10;;;;;;;;;;5010434;28;20100;-69
2024/02/25 03:58:56;;;;;;;1.30;1.00;;;;;;;;;;5009959;28;20041;-70
2024/02/25 04:01:22;;;;;;;1.70;1.00;;;;;;;;;;5015108;28;20439;-69
2024/02/25 04:03:48;;;;;;;2.45;1.20;;;;;;;;;;5009176;28;20030;-69
2024/02/25 04:06:14;;;;;;;1.42;1.10;;;;;;;;;;5008350;28;20123;-68
2024/02/25 04:08:39;;;;;;;1.52;1.00;;;;;;;;;;5009802;28;20066;-69
2024/02/25 04:11:05;;;;;;;1.30;1.00;;;;;;;;;;5013011;28;20060;-69
2024/02/25 04:13:30;;;;;;;1.42;1.02;;;;;;;;;;5008285;28;20448;-69
2024/02/25 04:15:55;;;;;;;2.55;1.13;;;;;;;;;;5010390;28;20038;-69
2024/02/25 04:18:21;;;;;;;1.63;1.10;;;;;;;;;;5010250;28;20450;-69
2024/02/25 04:20:46;;;;;;;1.85;1.00;;;;;;;;;;5009469;28;20073;-69
2024/02/25 04:23:13;;;;;;;1.58;1.00;;;;;;;;;;5010790;28;20045;-68
2024/02/25 04:25:39;;;;;;;1.35;0.90;;;;;;;;;;5008044;28;20042;-69
2024/02/25 04:28:04;;;;;;;1.60;1.13;;;;;;;;;;5010294;28;20040;-69
2024/02/25 04:30:29;;;;;;;1.23;0.90;;;;;;;;;;5011228;28;20053;-68
2024/02/25 04:32:55;;;;;;;1.50;1.00;;;;;;;;;;5009420;28;20022;-68
2024/02/25 04:35:20;;;;;;;1.77;1.00;;;;;;;;;;5009090;28;20030;-68
2024/02/25 04:37:46;;;;;;;1.13;0.98;;;;;;;;;;5008871;28;20044;-67
2024/02/25 04:40:11;;;;;;;1.70;1.10;;;;;;;;;;5011013;28;20061;-70
2024/02/25 04:42:36;;;;;;;1.27;0.90;;;;;;;;;;5010854;28;21063;-68
2024/02/25 04:45:02;;;;;;;1.67;0.82;;;;;;;;;;5008071;28;20039;-67
2024/02/25 04:47:27;;;;;;;1.02;0.82;;;;;;;;;;5009657;28;20025;-67
2024/02/25 04:49:53;;;;;;;1.67;1.00;;;;;;;;;;5009793;28;20053;-68
2024/02/25 04:52:20;;;;;;;2.45;0.90;;;;;;;;;;5008502;28;20418;-67
2024/02/25 04:54:46;;;;;;;2.05;1.10;;;;;;;;;;5010901;28;20045;-67
2024/02/25 04:57:12;;;;;;;2.08;1.45;;;;;;;;;;5009418;28;20048;-67
2024/02/25 04:59:44;;;;;;;1.85;0.80;;;;;;;;;;5008581;28;20168;-67
2024/02/25 05:02:09;;;;;;;1.15;0.93;;;;;;;;;;5008688;28;20514;-68
2024/02/25 05:04:36;;;;;;;1.23;0.90;;;;;;;;;;4997664;28;20034;-68
2024/02/25 05:07:01;;;;;;;1.35;0.82;;;;;;;;;;5008874;28;20022;-68
2024/02/25 05:09:28;;;;;;;1.48;1.08;;;;;;;;;;5008460;28;20055;-70
2024/02/25 05:11:53;;;;;;;1.52;1.10;;;;;;;;;;4999187;28;20061;-69
2024/02/25 05:14:19;;;;;;;1.25;0.93;;;;;;;;;;5003689;28;20114;-70
2024/02/25 05:16:52;;;;;;;1.52;1.00;;;;;;;;;;5017642;28;20095;-68
2024/02/25 05:19:17;;;;;;;1.60;1.02;;;;;;;;;;5009321;28;20066;-68
2024/02/25 05:21:43;;;;;;;1.38;1.10;;;;;;;;;;5015910;28;20053;-69
2024/02/25 05:24:08;;;;;;;1.20;0.90;;;;;;;;;;5020766;28;20030;-69
2024/02/25 05:26:34;;;;;;;2.22;1.02;;;;;;;;;;5015677;28;20038;-68
2024/02/25 05:28:59;;;;;;;1.55;1.10;;;;;;;;;;5015098;28;20096;-70
2024/02/25 05:31:25;;;;;;;1.65;0.90;;;;;;;;;;5012370;28;20060;-69
2024/02/25 05:33:51;;;;;;;1.20;0.90;;;;;;;;;;5008360;28;20080;-69
2024/02/25 05:36:23;;;;;;;1.77;1.10;;;;;;;;;;4987910;28;20128;-69
2024/02/25 05:38:52;;;;;;;1.58;1.05;;;;;;;;;;4999973;28;20116;-69
2024/02/25 05:41:25;;;;;;;1.55;1.02;;;;;;;;;;5015584;28;20041;-70
2024/02/25 05:43:50;;;;;;;1.77;1.02;;;;;;;;;;5009980;28;20037;-69
2024/02/25 05:46:15;;;;;;;2.30;1.20;;;;;;;;;;5017030;28;20037;-68
2024/02/25 05:48:58;;;;;;;1.30;0.90;;;;;;;;;;5025022;28;20030;-70
2024/02/25 05:52:08;;;;;;;1.20;1.00;;;;;;;;;;5020864;28;20101;-70
2024/02/25 05:54:14;;;;;;;1.70;1.10;;;;;;;;;;5008375;28;20038;-69
2024/02/25 05:56:43;;;;;;;1.88;0.90;;;;;;;;;;5022174;28;20032;-70
2024/02/25 05:59:14;;;;;;;1.50;0.80;;;;;;;;;;4980979;28;20030;-69
2024/02/25 06:01:45;;;;;;;1.25;0.90;;;;;;;;;;5006895;28;20029;-70
2024/02/25 06:04:11;;;;;;;2.92;1.30;;;;;;;;;;5008114;28;20087;-69
2024/02/25 06:06:57;;;;;;;1.05;0.90;;;;;;;;;;5012074;28;20088;-71
2024/02/25 06:09:22;;;;;;;1.77;1.02;;;;;;;;;;5006656;28;20049;-69
2024/02/25 06:11:51;;;;;;;1.48;1.05;;;;;;;;;;5008769;28;20061;-69
2024/02/25 06:14:19;;;;;;;1.27;0.95;;;;;;;;;;5015477;28;20034;-69
2024/02/25 06:16:47;;;;;;;1.70;1.10;;;;;;;;;;5016527;28;20030;-70
2024/02/25 06:19:12;;;;;;;3.95;1.17;;;;;;;;;;4995349;28;20152;-69
2024/02/25 06:21:41;;;;;;;1.58;1.10;;;;;;;;;;4994813;28;20105;-70
2024/02/25 06:24:06;;;;;;;2.53;1.10;;;;;;;;;;4996750;28;20403;-68
2024/02/25 06:26:32;;;;;;;1.60;0.93;;;;;;;;;;4996066;28;20086;-68
2024/02/25 06:29:08;;;;;;;1.33;0.80;;;;;;;;;;4990992;28;20433;-69
2024/02/25 06:31:36;;;;;;;1.25;0.90;;;;;;;;;;4989044;28;20045;-70
2024/02/25 06:34:01;;;;;;;1.25;0.90;;;;;;;;;;4985907;28;20555;-66
2024/02/25 06:36:27;;;;;;;1.70;1.17;;;;;;;;;;4999956;28;20567;-69
2024/02/25 06:38:52;;;;;;;2.20;1.10;;;;;;;;;;4998489;28;20029;-69
2024/02/25 06:41:36;;;;;;;2.13;1.20;;;;;;;;;;4986858;28;20034;-69
2024/02/25 06:44:03;;;;;;;1.80;1.20;;;;;;;;;;4996799;28;20038;-70
2024/02/25 06:46:29;;;;;;;1.33;0.98;;;;;;;;;;4999442;28;20049;-70
2024/02/25 06:48:55;;;;;;;1.30;1.00;;;;;;;;;;4999103;28;20106;-69
2024/02/25 06:51:21;;;;;;;1.38;1.13;;;;;;;;;;4997337;28;20048;-69
2024/02/25 06:53:46;;;;;;;1.27;0.90;;;;;;;;;;4999760;28;20034;-70
2024/02/25 06:56:11;;;;;;;2.40;1.20;;;;;;;;;;4998420;28;20038;-67
2024/02/25 06:58:37;;;;;;;1.65;0.90;;;;;;;;;;4998243;28;20034;-67
2024/02/25 07:01:03;;;;;;;1.38;0.98;;;;;;;;;;4997201;28;20049;-69
2024/02/25 07:03:28;;;;;;;1.88;1.20;;;;;;;;;;5000028;28;20672;-68
2024/02/25 07:05:53;;;;;;;1.50;0.98;;;;;;;;;;5001452;28;20163;-68
2024/02/25 07:08:19;;;;;;;1.95;1.15;;;;;;;;;;5000984;28;20069;-68
2024/02/25 07:10:44;;;;;;;1.50;0.98;;;;;;;;;;4999946;28;20046;-67
2024/02/25 07:13:10;;;;;;;1.30;0.98;;;;;;;;;;4999644;28;20034;-70
2024/02/25 07:15:53;;;;;;;4.43;1.05;;;;;;;;;;5001025;28;20026;-71
2024/02/25 07:18:18;;;;;;;1.88;0.90;;;;;;;;;;5000896;28;20454;-68
2024/02/25 07:20:44;;;;;;;1.25;0.90;;;;;;;;;;5000611;28;20038;-70
2024/02/25 07:23:33;;;;;;;1.65;1.20;;;;;;;;;;5002744;28;20034;-70
2024/02/25 07:25:59;;;;;;;1.90;1.20;;;;;;;;;;4999348;28;20533;-70
2024/02/25 07:28:54;;;;;;;;;;;;;;;;;;;;;
2024/02/25 07:31:31;;;;;;;1.33;1.05;;;;;;;;;;4996623;28;20516;-70
2024/02/25 07:33:59;;;;;;;1.73;1.20;;;;;;;;;;5004679;28;20038;-70
2024/02/25 07:36:30;;;;;;;1.23;0.82;;;;;;;;;;5005391;28;20042;-67
2024/02/25 07:38:58;;;;;;;1.95;1.05;;;;;;;;;;5006344;28;20038;-69
2024/02/25 07:42:03;;;;;;;1.92;0.95;;;;;;;;;;5000525;28;20061;-69
2024/02/25 07:44:42;;;;;;;1.63;1.08;;;;;;;;;;5000738;28;20044;-72
2024/02/25 07:47:07;;;;;;;1.83;1.20;;;;;;;;;;4999393;28;20111;-69
2024/02/25 07:49:32;;;;;;;1.30;0.90;;;;;;;;;;5004717;28;20125;-69
2024/02/25 07:51:58;;;;;;;1.75;1.00;;;;;;;;;;4999966;28;20121;-69
2024/02/25 07:54:23;;;;;;;1.52;1.02;;;;;;;;;;5013806;28;20105;-69
2024/02/25 07:56:48;;;;;;;1.65;1.00;;;;;;;;;;5003845;28;20139;-67
2024/02/25 07:59:14;;;;;;;1.27;0.90;;;;;;;;;;5005882;28;20034;-68
2024/02/25 08:01:39;;;;;;;1.98;1.20;;;;;;;;;;5003570;28;20084;-68
2024/02/25 08:04:04;;;;;;;1.33;1.02;;;;;;;;;;5002535;28;20535;-69
2024/02/25 08:06:31;;;;;;;1.15;0.82;;;;;;;;;;5007166;28;20038;-68
2024/02/25 08:09:02;;;;;;;1.40;0.93;;;;;;;;;;5005302;28;20045;-69
2024/02/25 08:11:38;;;;;;;1.42;0.98;;;;;;;;;;5004425;28;20204;-69
2024/02/25 08:14:06;;;;;;;1.75;0.98;;;;;;;;;;4991346;28;20037;-69
2024/02/25 08:16:37;;;;;;;1.50;1.00;;;;;;;;;;5003301;28;20041;-69
2024/02/25 08:19:02;;;;;;;2.17;1.17;;;;;;;;;;5018146;28;20038;-69
2024/02/25 08:21:27;;;;;;;2.17;1.08;;;;;;;;;;4995403;28;20045;-69
2024/02/25 08:23:53;;;;;;;2.85;1.02;;;;;;;;;;5002262;28;20041;-70
2024/02/25 08:26:27;;;;;;;1.95;0.98;;;;;;;;;;4995927;28;20038;-71
2024/02/25 08:29:13;;;;;;;1.60;1.08;;;;;;;;;;5007282;28;20037;-71
2024/02/25 08:31:48;;;;;;;2.35;0.90;;;;;;;;;;4987832;28;20050;-68
2024/02/25 08:34:19;;;;;;;1.90;1.02;;;;;;;;;;5001077;28;20037;-70
2024/02/25 08:37:05;;;;;;;1.30;0.90;;;;;;;;;;5001723;28;20081;-70
2024/02/25 08:39:33;;;;;;;1.48;1.05;;;;;;;;;;5003148;28;20061;-69
2024/02/25 08:41:58;;;;;;;2.05;1.10;;;;;;;;;;5002754;28;20165;-69
2024/02/25 08:44:24;;;;;;;1.45;1.00;;;;;;;;;;5004464;28;21101;-69
2024/02/25 08:47:08;;;;;;;3.70;1.17;;;;;;;;;;5002289;28;20033;-68
2024/02/25 08:49:34;;;;;;;1.98;1.20;;;;;;;;;;5003736;28;20030;-69
2024/02/25 08:52:14;;;;;;;1.65;1.02;;;;;;;;;;5003337;28;20545;-69
2024/02/25 08:54:39;;;;;;;1.50;1.05;;;;;;;;;;5002322;28;20038;-69
2024/02/25 08:57:08;;;;;;;2.10;1.08;;;;;;;;;;5001855;28;20034;-69
2024/02/25 08:59:36;;;;;;;2.20;1.08;;;;;;;;;;5001697;28;20057;-69
2024/02/25 09:02:05;;;;;;;1.73;1.10;;;;;;;;;;5002664;28;20034;-68
2024/02/25 09:04:31;;;;;;;1.40;1.05;;;;;;;;;;4982844;28;20038;-69
2024/02/25 09:07:13;;;;;;;1.90;1.23;;;;;;;;;;4970560;28;20053;-70
2024/02/25 09:09:39;;;;;;;1.67;1.20;;;;;;;;;;4995105;28;20033;-68
2024/02/25 09:12:53;;;;;;;1.70;1.10;;;;;;;;;;5012152;28;20061;-68
2024/02/25 09:18:53;;;;;;;2.50;1.20;;;;;;;;;;4988448;28;20038;-69
2024/02/25 09:21:32;;;;;;;1.98;1.13;;;;;;;;;;4989849;28;20037;-69
2024/02/25 09:23:57;;;;;;;1.90;1.10;;;;;;;;;;4988745;28;20110;-69
2024/02/25 09:26:22;;;;;;;2.15;1.02;;;;;;;;;;5003979;28;20045;-68
2024/02/25 09:28:51;;;;;;;2.05;1.15;;;;;;;;;;5004253;28;20104;-69
2024/02/25 09:31:21;;;;;;;2.92;1.23;;;;;;;;;;5006369;28;20041;-68
2024/02/25 09:33:46;;;;;;;2.40;1.33;;;;;;;;;;4999601;28;20028;-71
2024/02/25 09:36:12;;;;;;;1.70;1.27;;;;;;;;;;4999961;28;20081;-68
2024/02/25 09:38:46;;;;;;;2.90;1.30;;;;;;;;;;4990028;28;20128;-69
2024/02/25 09:41:11;;;;;;;1.63;1.10;;;;;;;;;;5000939;28;20038;-70
2024/02/25 09:43:37;;;;;;;1.83;1.30;;;;;;;;;;4972593;28;20466;-69
2024/02/25 09:46:05;;;;;;;5.22;1.20;;;;;;;;;;5005308;28;20534;-65
2024/02/25 09:48:33;;;;;;;3.17;1.23;;;;;;;;;;5004159;28;20034;-68
2024/02/25 09:50:58;;;;;;;1.95;1.30;;;;;;;;;;5005304;28;20048;-68
2024/02/25 09:53:23;;;;;;;2.38;1.27;;;;;;;;;;5003101;28;20030;-68
2024/02/25 09:55:49;;;;;;;4.15;1.40;;;;;;;;;;4999174;28;20593;-68
2024/02/25 09:58:15;;;;;;;3.92;1.45;;;;;;;;;;5002906;28;20121;-69
2024/02/25 10:00:41;;;;;;;2.63;1.40;;;;;;;;;;5001464;28;20044;-68
2024/02/25 10:03:07;;;;;;;4.57;1.50;;;;;;;;;;5001767;28;20471;-67
2024/02/25 10:05:33;;;;;;;1.90;1.20;;;;;;;;;;4999302;28;20038;-69
2024/02/25 10:08:19;;;;;;;3.70;1.33;;;;;;;;;;5000817;28;20057;-68
2024/02/25 10:10:44;;;;;;;2.25;1.10;;;;;;;;;;4994612;28;20050;-69
2024/02/25 10:13:13;;;;;;;2.63;1.02;;;;;;;;;;4985809;28;20200;-69
2024/02/25 10:15:39;;;;;;;2.10;1.27;;;;;;;;;;5003366;28;20462;-69
2024/02/25 10:18:04;;;;;;;2.35;1.20;;;;;;;;;;5002805;28;20289;-69
2024/02/25 10:20:30;;;;;;;1.73;1.10;;;;;;;;;;5002571;28;20065;-69
2024/02/25 10:23:08;;;;;;;3.83;1.10;;;;;;;;;;5000381;28;20037;-68
2024/02/25 10:25:37;;;;;;;3.40;1.40;;;;;;;;;;5001876;28;20034;-69
2024/02/25 10:28:16;;;;;;;1.85;1.17;;;;;;;;;;5001365;28;20098;-68
2024/02/25 10:30:58;;;;;;;3.97;2.70;;;;;;;;;;5000619;28;20062;-68
2024/02/25 10:33:24;;;;;;;3.03;1.77;;;;;;;;;;4999574;28;20121;-69
2024/02/25 10:35:50;;;;;;;3.80;1.90;;;;;;;;;;5004378;28;20554;-69
2024/02/25 10:38:15;;;;;;;2.42;1.50;;;;;;;;;;5001869;28;20048;-69
2024/02/25 10:40:40;;;;;;;2.97;1.35;;;;;;;;;;5000350;28;20236;-68
2024/02/25 10:43:07;;;;;;;3.92;1.25;;;;;;;;;;5000229;28;20494;-69
2024/02/25 10:45:36;;;;;;;2.72;1.40;;;;;;;;;;4993503;28;20034;-68
2024/02/25 10:48:01;;;;;;;2.70;1.60;;;;;;;;;;4990982;28;20506;-69
2024/02/25 10:50:26;;;;;;;3.13;1.40;;;;;;;;;;4992988;28;20052;-69
2024/02/25 10:52:52;;;;;;;1.73;1.20;;;;;;;;;;5001324;28;20046;-69
2024/02/25 10:55:18;;;;;;;2.28;1.23;;;;;;;;;;5000427;28;20049;-68
2024/02/25 10:57:43;;;;;;;2.60;1.42;;;;;;;;;;5002863;28;20030;-69
2024/02/25 11:00:11;;;;;;;1.77;1.40;;;;;;;;;;4996444;28;20112;-69
2024/02/25 11:02:36;;;;;;;2.63;1.67;;;;;;;;;;4995667;28;20773;-68
2024/02/25 11:05:02;;;;;;;2.13;1.25;;;;;;;;;;4999450;28;20589;-69
2024/02/25 11:07:27;;;;;;;1.83;1.25;;;;;;;;;;4995584;28;20125;-69
2024/02/25 11:09:52;;;;;;;2.75;1.42;;;;;;;;;;4998587;28;20034;-69
2024/02/25 11:12:21;;;;;;;3.55;1.50;;;;;;;;;;4994675;28;20054;-69
2024/02/25 11:15:00;;;;;;;2.20;1.35;;;;;;;;;;4994292;28;20042;-69
2024/02/25 11:17:29;;;;;;;2.10;1.40;;;;;;;;;;4994992;28;20030;-70
2024/02/25 11:20:00;;;;;;;1.70;1.10;;;;;;;;;;4999160;28;20030;-70
2024/02/25 11:22:38;;;;;;;2.00;1.13;;;;;;;;;;4996772;28;20038;-70
2024/02/25 11:25:04;;;;;;;2.65;1.13;;;;;;;;;;4994781;28;20052;-70
2024/02/25 11:27:29;;;;;;;1.70;1.00;;;;;;;;;;4998808;28;20050;-70
2024/02/25 11:30:13;;;;;;;3.33;1.45;;;;;;;;;;4997971;28;20161;-69
2024/02/25 11:32:42;;;;;;;2.90;1.60;;;;;;;;;;5000868;28;20477;-69
2024/02/25 11:35:10;;;;;;;2.58;1.40;;;;;;;;;;5016145;28;20026;-70
2024/02/25 11:37:40;;;;;;;3.45;1.50;;;;;;;;;;5003977;28;20077;-68
2024/02/25 11:40:05;;;;;;;1.73;1.30;;;;;;;;;;5005776;28;20137;-68
2024/02/25 11:42:31;;;;;;;2.38;1.45;;;;;;;;;;5004484;28;20121;-67
2024/02/25 11:44:56;;;;;;;1.95;1.30;;;;;;;;;;5003446;28;20053;-69
2024/02/25 11:47:22;;;;;;;1.70;1.20;;;;;;;;;;5005785;28;20045;-68
2024/02/25 11:49:47;;;;;;;1.92;1.33;;;;;;;;;;5004474;28;20127;-68
2024/02/25 11:52:12;;;;;;;2.40;1.10;;;;;;;;;;5006529;28;20152;-68
2024/02/25 11:54:38;;;;;;;1.60;1.00;;;;;;;;;;5003207;28;20054;-68
2024/02/25 11:57:04;;;;;;;1.92;1.13;;;;;;;;;;5008040;28;20030;-69
2024/02/25 11:59:32;;;;;;;2.25;1.40;;;;;;;;;;5003295;28;20038;-69
2024/02/25 12:01:57;;;;;;;2.65;1.33;;;;;;;;;;5002977;28;20546;-68
2024/02/25 12:04:22;;;;;;;2.42;1.40;;;;;;;;;;4999398;28;20482;-69
2024/02/25 12:06:51;;;;;;;1.98;1.30;;;;;;;;;;5000608;28;20089;-69
2024/02/25 12:09:16;;;;;;;2.03;1.25;;;;;;;;;;4997858;28;20111;-69
2024/02/25 12:11:42;;;;;;;2.25;1.20;;;;;;;;;;5004295;28;20042;-70
2024/02/25 12:14:19;;;;;;;2.70;1.40;;;;;;;;;;5000042;28;20041;-69
2024/02/25 12:16:47;;;;;;;2.92;1.45;;;;;;;;;;5003225;28;20041;-69
2024/02/25 12:19:19;;;;;;;2.33;1.40;;;;;;;;;;5004671;28;20058;-69
2024/02/25 12:22:01;;;;;;;1.90;1.20;;;;;;;;;;5005150;28;20060;-69
2024/02/25 12:24:27;;;;;;;1.70;1.25;;;;;;;;;;4994576;28;20136;-70
2024/02/25 12:26:54;;;;;;;2.63;1.50;;;;;;;;;;5016620;28;21128;-68
2024/02/25 12:29:20;;;;;;;2.38;1.30;;;;;;;;;;5006107;28;20061;-67
2024/02/25 12:31:57;;;;;;;3.58;1.30;;;;;;;;;;5002884;28;20038;-70
2024/02/25 12:34:30;;;;;;;3.05;1.40;;;;;;;;;;5002430;28;20034;-67
2024/02/25 12:36:56;;;;;;;3.60;1.50;;;;;;;;;;5001300;28;20048;-69
2024/02/25 12:39:26;;;;;;;2.22;1.35;;;;;;;;;;4980811;28;20037;-68
2024/02/25 12:41:55;;;;;;;2.10;1.35;;;;;;;;;;5005405;28;20045;-68
2024/02/25 12:44:20;;;;;;;2.40;1.57;;;;;;;;;;5000439;28;20244;-67
2024/02/25 12:46:46;;;;;;;2.42;1.20;;;;;;;;;;5004232;28;20029;-68
2024/02/25 12:49:14;;;;;;;2.13;1.38;;;;;;;;;;5004635;28;20038;-69
2024/02/25 12:51:39;;;;;;;1.40;1.02;;;;;;;;;;5003694;28;20060;-71
2024/02/25 12:54:06;;;;;;;2.30;1.30;;;;;;;;;;5003822;28;20045;-70
2024/02/25 12:56:37;;;;;;;1.85;1.27;;;;;;;;;;5004703;28;20037;-68
2024/02/25 12:59:06;;;;;;;2.33;1.02;;;;;;;;;;5004513;28;20069;-69
2024/02/25 13:01:35;;;;;;;2.45;1.40;;;;;;;;;;5003943;28;20036;-70
2024/02/25 13:04:29;;;;;;;;;;;;;;;;;;;;;
2024/02/25 13:06:55;;;;;;;2.33;1.25;;;;;;;;;;5061449;23;20049;-68
2024/02/25 13:09:21;;;;;;;3.15;1.70;;;;;;;;;;4985050;28;20439;-68
2024/02/25 13:11:46;;;;;;;2.08;1.33;;;;;;;;;;4978725;28;20042;-68
2024/02/25 13:14:12;;;;;;;2.47;1.40;;;;;;;;;;4978819;28;20049;-69
2024/02/25 13:16:37;;;;;;;1.88;1.30;;;;;;;;;;4979798;28;20106;-68
2024/02/25 13:19:02;;;;;;;4.10;1.50;;;;;;;;;;4977818;28;20041;-68
2024/02/25 13:21:28;;;;;;;1.90;1.27;;;;;;;;;;4977463;28;20046;-69
2024/02/25 13:23:53;;;;;;;1.40;1.00;;;;;;;;;;4978338;28;20042;-70
2024/02/25 13:26:18;;;;;;;2.38;1.38;;;;;;;;;;4977022;28;20183;-69
2024/02/25 13:28:44;;;;;;;2.75;1.42;;;;;;;;;;4977933;28;20469;-69
2024/02/25 13:31:10;;;;;;;3.00;1.60;;;;;;;;;;4978791;28;20090;-67
2024/02/25 13:33:35;;;;;;;1.98;1.15;;;;;;;;;;4977157;28;20042;-69
2024/02/25 13:36:00;;;;;;;1.90;1.15;;;;;;;;;;4979371;28;20552;-68
2024/02/25 13:38:26;;;;;;;2.10;1.20;;;;;;;;;;4978488;28;20034;-68
2024/02/25 13:40:52;;;;;;;2.28;1.50;;;;;;;;;;4980923;28;20452;-68
2024/02/25 13:43:17;;;;;;;2.65;1.20;;;;;;;;;;4980160;28;20046;-69
2024/02/25 13:45:47;;;;;;;1.90;1.50;;;;;;;;;;4973907;28;20102;-65
2024/02/25 13:48:12;;;;;;;1.83;1.27;;;;;;;;;;4973973;28;20178;-65
2024/02/25 13:50:38;;;;;;;2.15;1.50;;;;;;;;;;4974659;28;20066;-66
2024/02/25 13:53:04;;;;;;;2.67;1.20;;;;;;;;;;4977312;28;20140;-68
2024/02/25 13:55:29;;;;;;;1.80;1.38;;;;;;;;;;4974519;28;20049;-65
2024/02/25 13:57:54;;;;;;;2.15;1.40;;;;;;;;;;4995154;28;20038;-67
2024/02/25 14:00:20;;;;;;;2.83;1.48;;;;;;;;;;4983499;28;20034;-67
2024/02/25 14:02:46;;;;;;;2.05;1.33;;;;;;;;;;4989289;28;20547;-65
2024/02/25 14:05:15;;;;;;;2.97;1.20;;;;;;;;;;4988988;28;20034;-66
2024/02/25 14:07:40;;;;;;;2.25;1.27;;;;;;;;;;4983681;28;20050;-65
2024/02/25 14:10:06;;;;;;;2.63;1.40;;;;;;;;;;4995636;28;20053;-66
2024/02/25 14:12:31;;;;;;;2.03;1.23;;;;;;;;;;5005565;28;20046;-66
2024/02/25 14:14:56;;;;;;;3.72;1.70;;;;;;;;;;4987549;28;20042;-68
2024/02/25 14:17:22;;;;;;;4.20;1.50;;;;;;;;;;4990017;28;20460;-66
2024/02/25 14:19:47;;;;;;;3.10;1.52;;;;;;;;;;4991357;28;20070;-64
2024/02/25 14:22:12;;;;;;;2.20;1.20;;;;;;;;;;4988968;28;20128;-67
2024/02/25 14:24:38;;;;;;;2.08;1.30;;;;;;;;;;4988388;28;20097;-64
2024/02/25 14:27:03;;;;;;;2.40;1.20;;;;;;;;;;4988175;28;20550;-68
2024/02/25 14:29:28;;;;;;;3.80;2.33;;;;;;;;;;4993856;28;20038;-67
2024/02/25 14:31:54;;;;;;;3.80;3.08;;;;;;;;;;4989947;28;20046;-67
2024/02/25 14:34:19;;;;;;;3.22;2.50;;;;;;;;;;4988382;28;20034;-68
2024/02/25 14:36:45;;;;;;;4.25;2.30;;;;;;;;;;4988529;28;20042;-68
2024/02/25 14:39:11;;;;;;;4.05;2.33;;;;;;;;;;4988983;28;20034;-68
2024/02/25 14:41:36;;;;;;;3.38;2.20;;;;;;;;;;4990142;28;20045;-68
2024/02/25 14:44:01;;;;;;;4.15;2.22;;;;;;;;;;4989959;28;20391;-68
2024/02/25 14:46:36;;;;;;;5.05;2.60;;;;;;;;;;4996726;28;20030;-68
2024/02/25 14:49:01;;;;;;;3.30;2.60;;;;;;;;;;4986966;28;20100;-68
2024/02/25 14:51:26;;;;;;;3.50;2.30;;;;;;;;;;4989626;28;20038;-68
2024/02/25 14:53:52;;;;;;;4.88;2.50;;;;;;;;;;4990830;28;20030;-71
2024/02/25 14:56:18;;;;;;;5.28;2.67;;;;;;;;;;4972506;28;20543;-70